| time (UTC) | temp F | wind direction | speed knots | gust knots | rain 1hr in | rain 24hr in | rain mn in | humidity % | barometer mb |
| 20260504175506 | 71 | 300 | 1.7 | 9.6 | 0.00 | 0.00 | 0.00 | 30 | 1011.8 |
| 20260504175011 | 72 | 17 | 2.6 | 9.6 | 0.00 | 0.00 | 0.00 | 31 | 1011.9 |
| 20260504174508 | 72 | 16 | 2.6 | 7.8 | 0.00 | 0.00 | 0.00 | 30 | 1012.0 |
| 20260504174003 | 72 | 322 | 2.6 | 7.8 | 0.00 | 0.00 | 0.00 | 31 | 1012.0 |
| 20260504173504 | 72 | 14 | 1.7 | 7.8 | 0.00 | 0.00 | 0.00 | 31 | 1012.1 |
| 20260504173012 | 72 | 307 | 2.6 | 6.1 | 0.00 | 0.00 | 0.00 | 32 | 1012.0 |
| 20260504172504 | 72 | 205 | 1.7 | 7.0 | 0.00 | 0.00 | 0.00 | 32 | 1012.0 |
| 20260504172005 | 72 | 320 | 2.6 | 7.0 | 0.00 | 0.00 | 0.00 | 33 | 1012.0 |
| 20260504171517 | 71 | 309 | 2.6 | 7.0 | 0.00 | 0.00 | 0.00 | 32 | 1012.1 |
| 20260504171006 | 72 | 329 | 2.6 | 7.0 | 0.00 | 0.00 | 0.00 | 31 | 1012.2 |
| 20260504170510 | 71 | 298 | 1.7 | 7.0 | 0.00 | 0.00 | 0.00 | 33 | 1012.2 |
| 20260504151010 | 68 | 138 | 1.7 | 4.3 | 0.00 | 0.00 | 0.00 | 42 | 1013.6 |
| 20260504150514 | 67 | 241 | 0.9 | 10.4 | 0.00 | 0.00 | 0.00 | 43 | 1013.5 |
| 20260504141010 | 64 | 152 | 1.7 | 7.8 | 0.00 | 0.00 | 0.00 | 48 | 1013.8 |
| 20260504140510 | 63 | 300 | 1.7 | 7.8 | 0.00 | 0.00 | 0.00 | 51 | 1013.7 |
| 20260504130513 | 60 | 144 | 1.7 | 5.2 | 0.00 | 0.00 | 0.00 | 58 | 1014.4 |
| 20260504110502 | 41 | 133 | 0.0 | 0.0 | 0.00 | 0.00 | 0.00 | 82 | 1015.1 |
| 20260504100505 | 39 | 167 | 0.0 | 0.0 | 0.00 | 0.00 | 0.00 | 81 | 1015.1 |
| 20260504082003 | 43 | 202 | 0.0 | 0.0 | 0.00 | 0.00 | 0.00 | 72 | 1015.0 |
| 20260504081524 | 43 | 244 | 0.0 | 0.0 | 0.00 | 0.00 | 0.00 | 72 | 1015.0 |
| 20260504081005 | 43 | 198 | 0.0 | 0.9 | 0.00 | 0.00 | 0.00 | 72 | 1015.0 |
| 20260504080506 | 43 | 198 | 0.0 | 0.9 | 0.00 | 0.00 | 0.00 | 73 | 1015.0 |
| 20260504050507 | 45 | 250 | 0.0 | 1.7 | 0.00 | 0.00 | 0.00 | 62 | 1014.4 |
| 20260504050016 | 45 | 271 | 0.0 | 1.7 | 0.00 | 0.00 | 0.00 | 63 | 1014.4 |
| 20260504045507 | 45 | 271 | 0.0 | 1.7 | 0.00 | 0.00 | 0.00 | 63 | 1014.4 |
| 20260504045007 | 45 | 253 | 0.0 | 1.7 | 0.00 | 0.00 | 0.00 | 63 | 1014.3 |
| 20260504044526 | 45 | 250 | 0.0 | 1.7 | 0.00 | 0.00 | 0.00 | 64 | 1014.3 |
| 20260504044006 | 45 | 207 | 0.0 | 0.0 | 0.00 | 0.00 | 0.00 | 65 | 1014.3 |
| 20260504043507 | 45 | 205 | 0.0 | 0.0 | 0.00 | 0.00 | 0.00 | 65 | 1014.3 |
| 20260504043024 | 45 | 205 | 0.0 | 0.0 | 0.00 | 0.00 | 0.00 | 62 | 1014.2 |
| 20260504042507 | 45 | 201 | 0.0 | 0.0 | 0.00 | 0.00 | 0.00 | 62 | 1014.1 |
| 20260504042004 | 45 | 191 | 0.0 | 0.0 | 0.00 | 0.00 | 0.00 | 61 | 1014.1 |
| 20260504041511 | 45 | 200 | 0.0 | 0.0 | 0.00 | 0.00 | 0.00 | 62 | 1014.0 |
| 20260504041005 | 46 | 200 | 0.0 | 0.0 | 0.00 | 0.00 | 0.00 | 61 | 1013.9 |
| 20260504040504 | 46 | 200 | 0.0 | 0.0 | 0.00 | 0.00 | 0.00 | 60 | 1013.9 |
| 20260504040014 | 46 | 200 | 0.0 | 0.0 | 0.00 | 0.00 | 0.00 | 60 | 1013.9 |
| 20260504035512 | 46 | 230 | 0.0 | 0.0 | 0.00 | 0.00 | 0.00 | 59 | 1013.9 |
| 20260504035007 | 46 | 224 | 0.0 | 0.0 | 0.00 | 0.00 | 0.00 | 60 | 1013.7 |
| 20260504034531 | 46 | 224 | 0.0 | 0.0 | 0.00 | 0.00 | 0.00 | 60 | 1013.6 |
| 20260504034006 | 46 | 223 | 0.0 | 0.0 | 0.00 | 0.00 | 0.00 | 61 | 1013.7 |
| 20260504033502 | 46 | 233 | 0.0 | 0.0 | 0.00 | 0.00 | 0.00 | 59 | 1013.7 |
| 20260504033018 | 46 | 205 | 0.0 | 0.0 | 0.00 | 0.00 | 0.00 | 59 | 1013.6 |
| 20260504032501 | 46 | 206 | 0.0 | 0.0 | 0.00 | 0.00 | 0.00 | 61 | 1013.6 |
| 20260504032003 | 45 | 214 | 0.0 | 0.0 | 0.00 | 0.00 | 0.00 | 62 | 1013.6 |
| 20260504031509 | 45 | 214 | 0.0 | 0.0 | 0.00 | 0.00 | 0.00 | 64 | 1013.5 |
| 20260504031005 | 45 | 214 | 0.0 | 0.0 | 0.00 | 0.00 | 0.00 | 63 | 1013.5 |
| 20260504030507 | 45 | 214 | 0.0 | 0.0 | 0.00 | 0.00 | 0.00 | 63 | 1013.5 |
| 20260504030014 | 46 | 214 | 0.0 | 0.0 | 0.00 | 0.00 | 0.00 | 61 | 1013.7 |
| 20260504025507 | 46 | 260 | 0.0 | 0.0 | 0.00 | 0.00 | 0.00 | 61 | 1013.7 |
| 20260504025004 | 45 | 260 | 0.0 | 0.0 | 0.00 | 0.00 | 0.00 | 62 | 1013.7 |
| 20260504024540 | 46 | 260 | 0.0 | 0.0 | 0.00 | 0.00 | 0.00 | 62 | 1013.7 |
| 20260504024008 | 46 | 260 | 0.0 | 0.0 | 0.00 | 0.00 | 0.00 | 63 | 1013.7 |
| 20260504023507 | 46 | 260 | 0.0 | 0.0 | 0.00 | 0.00 | 0.00 | 62 | 1013.8 |
| 20260504023024 | 46 | 260 | 0.0 | 0.0 | 0.00 | 0.00 | 0.00 | 64 | 1013.7 |
| 20260504022510 | 46 | 260 | 0.0 | 0.0 | 0.00 | 0.00 | 0.00 | 64 | 1013.7 |
| 20260504022007 | 46 | 260 | 0.0 | 0.0 | 0.00 | 0.00 | 0.00 | 64 | 1013.7 |
| 20260504021506 | 46 | 260 | 0.0 | 0.0 | 0.00 | 0.00 | 0.00 | 62 | 1013.8 |
| 20260504021002 | 46 | 260 | 0.0 | 0.0 | 0.00 | 0.00 | 0.00 | 62 | 1013.7 |
| 20260504020502 | 47 | 260 | 0.0 | 0.0 | 0.00 | 0.00 | 0.00 | 62 | 1013.7 |
| 20260504020012 | 47 | 260 | 0.0 | 0.0 | 0.00 | 0.00 | 0.00 | 61 | 1013.8 |
| 20260504015505 | 46 | 260 | 0.0 | 0.0 | 0.00 | 0.00 | 0.00 | 64 | 1013.7 |
| 20260504015006 | 46 | 260 | 0.0 | 0.0 | 0.00 | 0.00 | 0.00 | 65 | 1013.7 |
| 20260504014517 | 47 | 260 | 0.0 | 0.0 | 0.00 | 0.00 | 0.00 | 65 | 1013.6 |
| 20260504014005 | 47 | 260 | 0.0 | 0.0 | 0.00 | 0.00 | 0.00 | 64 | 1013.7 |
| 20260504013506 | 47 | 260 | 0.0 | 0.0 | 0.00 | 0.00 | 0.00 | 62 | 1013.7 |
| 20260504013023 | 48 | 260 | 0.0 | 0.0 | 0.00 | 0.00 | 0.00 | 61 | 1013.7 |
| 20260504012507 | 48 | 260 | 0.0 | 0.0 | 0.00 | 0.00 | 0.00 | 59 | 1013.6 |
| 20260504012008 | 48 | 260 | 0.0 | 0.0 | 0.00 | 0.00 | 0.00 | 57 | 1013.5 |
| 20260504011525 | 48 | 269 | 0.0 | 0.0 | 0.00 | 0.00 | 0.00 | 57 | 1013.4 |
| 20260504011003 | 48 | 269 | 0.0 | 0.0 | 0.00 | 0.00 | 0.00 | 58 | 1013.3 |
| 20260504010505 | 48 | 270 | 0.0 | 0.0 | 0.00 | 0.00 | 0.00 | 56 | 1013.2 |
| 20260504010011 | 49 | 270 | 0.0 | 0.0 | 0.00 | 0.00 | 0.00 | 55 | 1013.1 |
| 20260504005504 | 49 | 270 | 0.0 | 0.0 | 0.00 | 0.00 | 0.00 | 57 | 1013.0 |
| 20260504005003 | 50 | 270 | 0.0 | 0.0 | 0.00 | 0.00 | 0.00 | 55 | 1013.0 |
| 20260504004532 | 50 | 270 | 0.0 | 0.0 | 0.00 | 0.00 | 0.00 | 53 | 1013.0 |
| 20260504004006 | 50 | 270 | 0.0 | 0.0 | 0.00 | 0.00 | 0.00 | 55 | 1012.9 |
| 20260504003507 | 51 | 270 | 0.0 | 0.0 | 0.00 | 0.00 | 0.00 | 51 | 1012.8 |
| 20260504003019 | 51 | 270 | 0.0 | 0.0 | 0.00 | 0.00 | 0.00 | 48 | 1012.7 |
| 20260504002509 | 52 | 270 | 0.0 | 0.0 | 0.00 | 0.00 | 0.00 | 47 | 1012.6 |
| 20260504002010 | 52 | 270 | 0.0 | 0.0 | 0.00 | 0.00 | 0.00 | 44 | 1012.5 |
| 20260504001525 | 53 | 274 | 0.0 | 0.0 | 0.00 | 0.00 | 0.00 | 43 | 1012.5 |
| 20260504001010 | 53 | 274 | 0.0 | 0.0 | 0.00 | 0.00 | 0.00 | 44 | 1012.5 |
| 20260504000511 | 54 | 274 | 0.0 | 0.0 | 0.00 | 0.00 | 0.00 | 43 | 1012.4 |
| 20260504000027 | 54 | 274 | 0.0 | 0.0 | 0.00 | 0.00 | 0.00 | 40 | 1012.4 |
| 20260503235502 | 54 | 265 | 0.0 | 0.0 | 0.00 | 0.00 | 0.00 | 42 | 1012.4 |
| 20260503235002 | 55 | 252 | 0.0 | 0.0 | 0.00 | 0.00 | 0.00 | 40 | 1012.3 |
| 20260503234513 | 55 | 258 | 0.0 | 0.0 | 0.00 | 0.00 | 0.00 | 39 | 1012.2 |
| 20260503234005 | 56 | 258 | 0.0 | 1.7 | 0.00 | 0.00 | 0.00 | 38 | 1012.2 |
| 20260503233505 | 57 | 261 | 0.0 | 3.5 | 0.00 | 0.00 | 0.00 | 36 | 1012.1 |
| 20260503233017 | 57 | 300 | 1.7 | 3.5 | 0.00 | 0.00 | 0.00 | 35 | 1012.1 |
| 20260503232505 | 57 | 251 | 0.0 | 3.5 | 0.00 | 0.00 | 0.00 | 34 | 1012.1 |
| 20260503232008 | 58 | 330 | 0.9 | 3.5 | 0.00 | 0.00 | 0.00 | 32 | 1012.1 |
| 20260503231522 | 58 | 322 | 0.9 | 3.5 | 0.00 | 0.00 | 0.00 | 34 | 1012.0 |
| 20260503231010 | 58 | 300 | 0.9 | 3.5 | 0.00 | 0.00 | 0.00 | 34 | 1012.0 |
| 20260503230511 | 58 | 269 | 0.9 | 3.5 | 0.00 | 0.00 | 0.00 | 33 | 1012.0 |
| 20260503230028 | 58 | 304 | 0.9 | 6.1 | 0.00 | 0.00 | 0.00 | 33 | 1012.0 |
| 20260503225509 | 58 | 275 | 0.9 | 6.1 | 0.00 | 0.00 | 0.00 | 32 | 1012.1 |
| 20260503225012 | 59 | 328 | 0.9 | 3.5 | 0.00 | 0.00 | 0.00 | 33 | 1012.0 |
| 20260503224509 | 59 | 277 | 0.9 | 2.6 | 0.00 | 0.00 | 0.00 | 32 | 1012.0 |
| 20260503224008 | 59 | 318 | 0.9 | 4.3 | 0.00 | 0.00 | 0.00 | 32 | 1012.0 |
| 20260503223506 | 59 | 290 | 1.7 | 4.3 | 0.00 | 0.00 | 0.00 | 31 | 1011.9 |
| 20260503223013 | 59 | 350 | 0.9 | 7.8 | 0.00 | 0.00 | 0.00 | 30 | 1012.0 |
| 20260503222505 | 59 | 346 | 2.6 | 7.8 | 0.00 | 0.00 | 0.00 | 30 | 1011.9 |
| 20260503222005 | 59 | 289 | 1.7 | 7.8 | 0.00 | 0.00 | 0.00 | 30 | 1011.8 |
| 20260503221521 | 59 | 351 | 4.3 | 7.8 | 0.00 | 0.00 | 0.00 | 30 | 1011.8 |
| 20260503221009 | 59 | 238 | 2.6 | 7.0 | 0.00 | 0.00 | 0.00 | 31 | 1011.9 |
| 20260503220508 | 59 | 360 | 2.6 | 7.0 | 0.00 | 0.00 | 0.00 | 31 | 1011.8 |
| 20260503220027 | 59 | 241 | 0.9 | 7.0 | 0.00 | 0.00 | 0.00 | 32 | 1011.9 |
| 20260503215507 | 59 | 280 | 2.6 | 7.0 | 0.00 | 0.00 | 0.00 | 31 | 1011.9 |
| 20260503215006 | 60 | 296 | 1.7 | 5.2 | 0.00 | 0.00 | 0.00 | 31 | 1011.9 |
| 20260503214527 | 60 | 292 | 2.6 | 5.2 | 0.00 | 0.00 | 0.00 | 30 | 1011.9 |
| 20260503214011 | 60 | 14 | 2.6 | 7.0 | 0.00 | 0.00 | 0.00 | 30 | 1011.9 |
| 20260503213506 | 59 | 292 | 2.6 | 7.0 | 0.00 | 0.00 | 0.00 | 31 | 1011.8 |
| 20260503213017 | 59 | 290 | 2.6 | 6.1 | 0.00 | 0.00 | 0.00 | 31 | 1012.0 |
| 20260503212506 | 60 | 360 | 2.6 | 8.7 | 0.00 | 0.00 | 0.00 | 31 | 1011.8 |
| 20260503212009 | 59 | 311 | 2.6 | 8.7 | 0.00 | 0.00 | 0.00 | 30 | 1011.7 |
| 20260503211529 | 59 | 290 | 1.7 | 7.0 | 0.00 | 0.00 | 0.00 | 32 | 1011.8 |
| 20260503211006 | 59 | 345 | 1.7 | 7.0 | 0.00 | 0.00 | 0.00 | 31 | 1011.9 |
| 20260503210506 | 59 | 319 | 1.7 | 7.8 | 0.00 | 0.00 | 0.00 | 30 | 1012.0 |
| 20260503210023 | 59 | 351 | 3.5 | 7.8 | 0.00 | 0.00 | 0.00 | 30 | 1011.9 |
| 20260503205509 | 60 | 315 | 1.7 | 8.7 | 0.00 | 0.00 | 0.00 | 29 | 1011.9 |
| 20260503205010 | 60 | 164 | 0.9 | 7.8 | 0.00 | 0.00 | 0.00 | 31 | 1012.0 |
| 20260503204524 | 60 | 302 | 1.7 | 7.0 | 0.00 | 0.00 | 0.00 | 29 | 1011.9 |
| 20260503204009 | 60 | 319 | 3.5 | 7.0 | 0.00 | 0.00 | 0.00 | 29 | 1011.9 |
| 20260503203510 | 60 | 9 | 3.5 | 9.6 | 0.00 | 0.00 | 0.00 | 30 | 1011.8 |
| 20260503203028 | 59 | 161 | 2.6 | 9.6 | 0.00 | 0.00 | 0.00 | 30 | 1011.8 |
| 20260503202503 | 59 | 280 | 5.2 | 9.6 | 0.00 | 0.00 | 0.00 | 29 | 1012.0 |
| 20260503202007 | 60 | 269 | 2.6 | 7.8 | 0.00 | 0.00 | 0.00 | 32 | 1011.9 |
| 20260503201516 | 60 | 19 | 2.6 | 9.6 | 0.00 | 0.00 | 0.00 | 31 | 1011.9 |
| 20260503201005 | 60 | 311 | 3.5 | 9.6 | 0.00 | 0.00 | 0.00 | 30 | 1011.9 |
| 20260503200506 | 60 | 286 | 3.5 | 7.0 | 0.00 | 0.00 | 0.00 | 31 | 1011.9 |
| 20260503200020 | 60 | 351 | 2.6 | 7.0 | 0.00 | 0.00 | 0.00 | 30 | 1011.8 |
| 20260503195512 | 60 | 32 | 2.6 | 7.0 | 0.00 | 0.00 | 0.00 | 31 | 1011.9 |
| 20260503195012 | 60 | 351 | 2.6 | 7.8 | 0.00 | 0.00 | 0.00 | 30 | 1011.8 |
| 20260503194525 | 60 | 275 | 0.9 | 7.8 | 0.00 | 0.00 | 0.00 | 34 | 1011.9 |
| 20260503194007 | 60 | 348 | 1.7 | 6.1 | 0.00 | 0.00 | 0.00 | 29 | 1011.9 |
| 20260503193510 | 60 | 232 | 2.6 | 6.1 | 0.00 | 0.00 | 0.00 | 31 | 1012.0 |
| 20260503193037 | 60 | 26 | 2.6 | 8.7 | 0.00 | 0.00 | 0.00 | 32 | 1012.0 |
| 20260503192510 | 59 | 296 | 2.6 | 8.7 | 0.00 | 0.00 | 0.00 | 30 | 1012.0 |
| 20260503192010 | 60 | 349 | 2.6 | 6.1 | 0.00 | 0.00 | 0.00 | 30 | 1012.2 |
| 20260503191515 | 60 | 316 | 2.6 | 6.1 | 0.00 | 0.00 | 0.00 | 32 | 1012.1 |
| 20260503191006 | 59 | 9 | 2.6 | 7.0 | 0.00 | 0.00 | 0.00 | 32 | 1012.1 |
| 20260503190506 | 58 | 319 | 2.6 | 9.6 | 0.00 | 0.00 | 0.00 | 32 | 1012.3 |
| 20260503190026 | 59 | 269 | 2.6 | 9.6 | 0.00 | 0.00 | 0.00 | 34 | 1012.3 |
| 20260503185507 | 59 | 229 | 1.7 | 7.0 | 0.00 | 0.00 | 0.00 | 32 | 1012.5 |
| 20260503185003 | 58 | 335 | 2.6 | 7.0 | 0.00 | 0.00 | 0.00 | 33 | 1012.5 |
| 20260503184504 | 57 | 68 | 2.6 | 12.2 | 0.00 | 0.00 | 0.00 | 33 | 1012.7 |
| 20260503184003 | 58 | 348 | 3.5 | 12.2 | 0.00 | 0.00 | 0.00 | 32 | 1012.6 |
| 20260503183502 | 58 | 351 | 2.6 | 6.1 | 0.00 | 0.00 | 0.00 | 33 | 1012.6 |
| 20260503183007 | 58 | 10 | 1.7 | 7.0 | 0.00 | 0.00 | 0.00 | 36 | 1012.6 |
| 20260503182502 | 58 | 9 | 1.7 | 7.0 | 0.00 | 0.00 | 0.00 | 38 | 1012.7 |
| 20260503182008 | 56 | 313 | 2.6 | 7.0 | 0.00 | 0.00 | 0.00 | 38 | 1012.9 |
| 20260503181513 | 55 | 9 | 2.6 | 7.0 | 0.00 | 0.00 | 0.00 | 35 | 1012.9 |
| 20260503181009 | 56 | 308 | 1.7 | 9.6 | 0.00 | 0.00 | 0.00 | 37 | 1012.9 |
| 20260503180503 | 57 | 221 | 3.5 | 9.6 | 0.00 | 0.00 | 0.00 | 36 | 1012.8 |
| 20260503180017 | 56 | 308 | 2.6 | 7.0 | 0.00 | 0.00 | 0.00 | 35 | 1012.8 |